Create Tblcommutelog Verified Points Advance Search
| # | Trip ID | Id Commuter | Trip Date | Trip Num | Current Lat | Current Lng | Delta Distance | Current Time | Activity | Activity Confidence | Current Speed | |
|---|---|---|---|---|---|---|---|---|---|---|---|---|
| 69181 | 251020_789402_16658249_1711 | 789402 | (not set) | (not set) | 38.89630413488 | -77.016910653808 | 0.9027 | 2025-10-20 17:16:44 | in_vehicle | 100 | -0.44703925898772 | |
| 69182 | 251020_788480_16657110_1704 | 788480 | (not set) | (not set) | 38.908916219215 | -77.053966171648 | 1.5086 | 2025-10-20 17:18:22 | unknown | 100 | 1.7792162507711 | |
| 69183 | 251020_784389_16652315_1632 | 784389 | (not set) | (not set) | 38.958323265768 | -77.407649734325 | 23.9891 | 2025-10-20 17:18:22 | in_vehicle | 100 | 12.159467844466 | |
| 69184 | 251020_787968_16656505_1553 | 787968 | (not set) | (not set) | 38.766770264253 | -77.483694726132 | 45.3731 | 2025-10-20 17:18:23 | in_vehicle | 100 | 4.8995502785055 | |
| 69185 | 251020_787157_16657928_1704 | 787157 | (not set) | (not set) | 38.96565561042 | -76.955013629653 | 2.1543 | 2025-10-20 17:18:23 | in_vehicle | 100 | -0.44703925898772 | |
| 69186 | 251020_788397_16657014_1653 | 788397 | (not set) | (not set) | 39.015318033333 | -76.97775255 | 5.7334 | 2025-10-20 17:18:23 | in_vehicle | 100 | 4.5285076935456 | |
| 69187 | 251020_789665_16658554_1705 | 789665 | (not set) | (not set) | 39.026791818928 | -77.103485424807 | 8.6885 | 2025-10-20 17:18:25 | in_vehicle | 100 | 8.5160978837161 | |
| 69188 | 251020_789665_16658554_1705 | 789665 | (not set) | (not set) | 39.026791818928 | -77.103485424807 | 8.6885 | 2025-10-20 17:18:25 | in_vehicle | 100 | 8.5160978837161 | |
| 69189 | 251020_769852_16636925_1624 | 769852 | (not set) | (not set) | 38.9898441139 | -77.15129681955 | 9.1082 | 2025-10-20 17:18:25 | still | 33 | 6.5312435738107 | |
| 69190 | 251020_789319_16658161_1712 | 789319 | (not set) | (not set) | 38.922768967942 | -76.995214419633 | 0.7484 | 2025-10-20 17:18:26 | in_vehicle | 100 | 5.4225862115211 | |
| 69191 | 251020_753800_16619976_1655 | 753800 | (not set) | (not set) | 38.897211258878 | -76.991546558252 | 4.1378 | 2025-10-20 17:18:27 | on_foot | 100 | 1.5333446583279 | |
| 69192 | 251020_753800_16619976_1655 | 753800 | (not set) | (not set) | 38.897211258878 | -76.991546558252 | 4.1378 | 2025-10-20 17:18:27 | on_foot | 100 | 1.5333446583279 | |
| 69193 | 251020_789307_16658135_1638 | 789307 | (not set) | (not set) | 39.053473392727 | -77.106732811258 | 15.7913 | 2025-10-20 17:18:28 | in_vehicle | 100 | 3.3572648349978 | |
| 69194 | 251020_788381_16657000_1716 | 788381 | (not set) | (not set) | 38.852035051277 | -76.917456593899 | 0.5127 | 2025-10-20 17:18:29 | in_vehicle | 100 | 3.6657219236993 | |
| 69195 | 251020_786839_16655227_1702 | 786839 | (not set) | (not set) | 39.410692911758 | -76.387508563151 | 5.0237 | 2025-10-20 17:18:30 | in_vehicle | 100 | 11.672195052169 | |
| 69196 | 251020_789402_16658249_1711 | 789402 | (not set) | (not set) | 38.897686464388 | -77.007322715475 | 1.7953 | 2025-10-20 17:18:30 | still | 33 | -0.44703925898772 | |
| 69197 | 251020_789402_16658249_1711 | 789402 | (not set) | (not set) | 38.897686464388 | -77.007322715475 | 1.7953 | 2025-10-20 17:18:30 | still | 33 | -0.44703925898772 | |
| 69198 | 251020_787157_16657928_1704 | 787157 | (not set) | (not set) | 38.965393529075 | -76.955738484205 | 2.1543 | 2025-10-20 17:18:30 | in_vehicle | 100 | -0.44703925898772 | |
| 69199 | 251020_785674_6441454_1642 | 785674 | (not set) | (not set) | 39.420490847182 | -77.4324226214 | 32.5897 | 2025-10-20 17:18:32 | in_vehicle | 100 | 8.2881078616324 | |
| 69200 | 251020_769783_16636848_1709 | 769783 | (not set) | (not set) | 38.978324848806 | -77.014076903443 | 0.2833 | 2025-10-20 17:19:09 | on_foot | 100 | 0.50515436265613 |